sensor_id;sensor_type;location;lat;lon;timestamp;pressure;altitude;pressure_sealevel;temperature;humidity
19510;BME280;9896;42.486;26.506;2023-03-25T00:02:14;99622.66;;;6.10;100.00
19510;BME280;9896;42.486;26.506;2023-03-25T00:04:40;99615.19;;;6.20;100.00
19510;BME280;9896;42.486;26.506;2023-03-25T00:07:05;99611.06;;;6.18;100.00
19510;BME280;9896;42.486;26.506;2023-03-25T00:09:32;99618.22;;;5.88;100.00
19510;BME280;9896;42.486;26.506;2023-03-25T00:11:57;99606.91;;;5.71;100.00
19510;BME280;9896;42.486;26.506;2023-03-25T00:14:23;99616.00;;;5.62;100.00
19510;BME280;9896;42.486;26.506;2023-03-25T00:16:51;99628.63;;;5.60;100.00
19510;BME280;9896;42.486;26.506;2023-03-25T00:19:18;99622.31;;;5.24;100.00
19510;BME280;9896;42.486;26.506;2023-03-25T00:21:46;99618.53;;;5.41;100.00
19510;BME280;9896;42.486;26.506;2023-03-25T00:24:15;99604.47;;;5.32;100.00
19510;BME280;9896;42.486;26.506;2023-03-25T00:26:45;99618.31;;;5.42;100.00
19510;BME280;9896;42.486;26.506;2023-03-25T00:29:13;99612.88;;;5.21;100.00
19510;BME280;9896;42.486;26.506;2023-03-25T00:31:39;99602.44;;;5.20;100.00
19510;BME280;9896;42.486;26.506;2023-03-25T00:34:05;99602.84;;;5.08;100.00
19510;BME280;9896;42.486;26.506;2023-03-25T00:36:31;99591.63;;;4.98;100.00
19510;BME280;9896;42.486;26.506;2023-03-25T00:38:56;99601.50;;;4.90;100.00
19510;BME280;9896;42.486;26.506;2023-03-25T00:41:24;99586.63;;;5.03;100.00
19510;BME280;9896;42.486;26.506;2023-03-25T00:43:54;99600.13;;;5.17;100.00
19510;BME280;9896;42.486;26.506;2023-03-25T00:46:22;99600.91;;;5.25;100.00
19510;BME280;9896;42.486;26.506;2023-03-25T00:48:48;99593.38;;;5.06;100.00
19510;BME280;9896;42.486;26.506;2023-03-25T00:51:14;99574.53;;;5.01;100.00
19510;BME280;9896;42.486;26.506;2023-03-25T00:53:44;99579.41;;;5.12;100.00
19510;BME280;9896;42.486;26.506;2023-03-25T00:56:10;99578.56;;;5.11;100.00
19510;BME280;9896;42.486;26.506;2023-03-25T00:58:37;99584.78;;;5.04;100.00
19510;BME280;9896;42.486;26.506;2023-03-25T01:01:14;99577.19;;;5.01;100.00
19510;BME280;9896;42.486;26.506;2023-03-25T01:03:41;99575.53;;;5.00;100.00
19510;BME280;9896;42.486;26.506;2023-03-25T01:06:12;99558.38;;;5.02;100.00
19510;BME280;9896;42.486;26.506;2023-03-25T01:08:38;99562.66;;;5.26;100.00
19510;BME280;9896;42.486;26.506;2023-03-25T01:11:04;99564.44;;;5.34;100.00
19510;BME280;9896;42.486;26.506;2023-03-25T01:13:30;99548.94;;;5.37;100.00
19510;BME280;9896;42.486;26.506;2023-03-25T01:15:56;99550.66;;;5.30;100.00
19510;BME280;9896;42.486;26.506;2023-03-25T01:18:21;99552.75;;;5.20;100.00
19510;BME280;9896;42.486;26.506;2023-03-25T01:20:47;99537.03;;;4.96;100.00
19510;BME280;9896;42.486;26.506;2023-03-25T01:23:12;99547.28;;;5.22;100.00
19510;BME280;9896;42.486;26.506;2023-03-25T01:25:38;99542.13;;;5.20;100.00
19510;BME280;9896;42.486;26.506;2023-03-25T01:28:03;99538.88;;;5.10;100.00
19510;BME280;9896;42.486;26.506;2023-03-25T01:30:30;99537.88;;;5.11;100.00
19510;BME280;9896;42.486;26.506;2023-03-25T01:32:55;99542.03;;;5.28;100.00
19510;BME280;9896;42.486;26.506;2023-03-25T01:35:21;99529.59;;;5.29;100.00
19510;BME280;9896;42.486;26.506;2023-03-25T01:37:47;99530.59;;;5.42;100.00
19510;BME280;9896;42.486;26.506;2023-03-25T01:40:20;99528.13;;;5.55;100.00
19510;BME280;9896;42.486;26.506;2023-03-25T01:42:47;99524.56;;;5.48;100.00
19510;BME280;9896;42.486;26.506;2023-03-25T01:45:18;99535.72;;;5.29;100.00
19510;BME280;9896;42.486;26.506;2023-03-25T01:47:47;99545.16;;;5.17;100.00
19510;BME280;9896;42.486;26.506;2023-03-25T01:50:14;99535.75;;;5.06;100.00
19510;BME280;9896;42.486;26.506;2023-03-25T01:52:44;99531.56;;;5.12;100.00
19510;BME280;9896;42.486;26.506;2023-03-25T01:55:11;99531.50;;;5.20;100.00
19510;BME280;9896;42.486;26.506;2023-03-25T01:57:39;99524.22;;;5.14;100.00
19510;BME280;9896;42.486;26.506;2023-03-25T02:00:09;99516.16;;;5.07;100.00
19510;BME280;9896;42.486;26.506;2023-03-25T02:02:35;99514.81;;;5.11;100.00
19510;BME280;9896;42.486;26.506;2023-03-25T02:05:07;99520.63;;;5.30;100.00
19510;BME280;9896;42.486;26.506;2023-03-25T02:07:39;99513.09;;;5.48;100.00
19510;BME280;9896;42.486;26.506;2023-03-25T02:10:08;99508.59;;;5.48;100.00
19510;BME280;9896;42.486;26.506;2023-03-25T02:12:34;99507.88;;;5.40;100.00
19510;BME280;9896;42.486;26.506;2023-03-25T02:15:02;99496.56;;;5.23;100.00
19510;BME280;9896;42.486;26.506;2023-03-25T02:39:31;99502.00;;;5.30;100.00
19510;BME280;9896;42.486;26.506;2023-03-25T02:47:16;99480.00;;;5.36;100.00
19510;BME280;9896;42.486;26.506;2023-03-25T02:50:05;99488.84;;;4.99;100.00
19510;BME280;9896;42.486;26.506;2023-03-25T02:52:38;99493.75;;;4.73;100.00
19510;BME280;9896;42.486;26.506;2023-03-25T02:55:09;99484.78;;;4.51;100.00
19510;BME280;9896;42.486;26.506;2023-03-25T02:57:38;99478.09;;;4.32;100.00
19510;BME280;9896;42.486;26.506;2023-03-25T03:00:06;99475.22;;;4.42;100.00
19510;BME280;9896;42.486;26.506;2023-03-25T03:02:45;99485.84;;;4.64;100.00
19510;BME280;9896;42.486;26.506;2023-03-25T03:05:34;99480.09;;;4.76;100.00
19510;BME280;9896;42.486;26.506;2023-03-25T03:16:32;99484.31;;;4.47;100.00
19510;BME280;9896;42.486;26.506;2023-03-25T03:21:57;99476.22;;;4.18;100.00
19510;BME280;9896;42.486;26.506;2023-03-25T03:24:32;99469.72;;;4.20;100.00
19510;BME280;9896;42.486;26.506;2023-03-25T03:30:02;99455.75;;;4.04;100.00
19510;BME280;9896;42.486;26.506;2023-03-25T03:32:41;99469.56;;;3.99;100.00
19510;BME280;9896;42.486;26.506;2023-03-25T03:35:19;99476.50;;;4.00;100.00
19510;BME280;9896;42.486;26.506;2023-03-25T03:37:51;99478.31;;;4.00;100.00
19510;BME280;9896;42.486;26.506;2023-03-25T03:40:21;99473.72;;;3.94;100.00
19510;BME280;9896;42.486;26.506;2023-03-25T03:43:04;99469.09;;;4.18;100.00
19510;BME280;9896;42.486;26.506;2023-03-25T03:45:41;99471.75;;;4.18;100.00
19510;BME280;9896;42.486;26.506;2023-03-25T03:48:18;99472.78;;;4.32;100.00
19510;BME280;9896;42.486;26.506;2023-03-25T03:50:52;99476.16;;;4.49;100.00
19510;BME280;9896;42.486;26.506;2023-03-25T03:53:30;99462.56;;;4.52;100.00
19510;BME280;9896;42.486;26.506;2023-03-25T03:56:03;99474.59;;;4.77;100.00
19510;BME280;9896;42.486;26.506;2023-03-25T03:58:36;99446.56;;;4.75;100.00
19510;BME280;9896;42.486;26.506;2023-03-25T04:01:06;99457.28;;;4.81;100.00
19510;BME280;9896;42.486;26.506;2023-03-25T04:03:42;99459.69;;;4.76;100.00
19510;BME280;9896;42.486;26.506;2023-03-25T04:06:26;99465.25;;;4.66;100.00
19510;BME280;9896;42.486;26.506;2023-03-25T04:09:18;99452.84;;;4.59;100.00
19510;BME280;9896;42.486;26.506;2023-03-25T04:14:29;99447.56;;;4.59;100.00
19510;BME280;9896;42.486;26.506;2023-03-25T04:16:55;99454.09;;;4.48;100.00
19510;BME280;9896;42.486;26.506;2023-03-25T04:19:20;99464.03;;;4.32;100.00
19510;BME280;9896;42.486;26.506;2023-03-25T04:21:46;99457.31;;;4.44;100.00
19510;BME280;9896;42.486;26.506;2023-03-25T04:24:15;99463.47;;;4.36;100.00
19510;BME280;9896;42.486;26.506;2023-03-25T04:26:44;99448.69;;;4.19;100.00
19510;BME280;9896;42.486;26.506;2023-03-25T04:29:10;99463.97;;;4.40;100.00
19510;BME280;9896;42.486;26.506;2023-03-25T04:31:38;99451.03;;;4.37;100.00
19510;BME280;9896;42.486;26.506;2023-03-25T04:34:10;99468.84;;;4.28;100.00
19510;BME280;9896;42.486;26.506;2023-03-25T04:36:38;99467.69;;;4.31;100.00
19510;BME280;9896;42.486;26.506;2023-03-25T04:39:06;99467.91;;;4.21;100.00
19510;BME280;9896;42.486;26.506;2023-03-25T04:41:32;99464.84;;;4.32;100.00
19510;BME280;9896;42.486;26.506;2023-03-25T04:43:58;99470.03;;;4.26;100.00
19510;BME280;9896;42.486;26.506;2023-03-25T04:46:23;99469.44;;;4.15;100.00
19510;BME280;9896;42.486;26.506;2023-03-25T04:48:49;99461.50;;;4.15;100.00
19510;BME280;9896;42.486;26.506;2023-03-25T04:51:18;99471.91;;;4.17;100.00
19510;BME280;9896;42.486;26.506;2023-03-25T04:53:44;99468.38;;;4.25;100.00
19510;BME280;9896;42.486;26.506;2023-03-25T04:56:16;99468.97;;;4.35;100.00
19510;BME280;9896;42.486;26.506;2023-03-25T04:58:42;99455.34;;;4.38;100.00
19510;BME280;9896;42.486;26.506;2023-03-25T05:01:23;99431.00;;;4.11;100.00
19510;BME280;9896;42.486;26.506;2023-03-25T05:03:58;99439.25;;;4.39;100.00
19510;BME280;9896;42.486;26.506;2023-03-25T05:06:33;99490.09;;;4.51;100.00
19510;BME280;9896;42.486;26.506;2023-03-25T05:09:00;99478.88;;;4.41;100.00
19510;BME280;9896;42.486;26.506;2023-03-25T05:11:27;99452.66;;;4.23;100.00
19510;BME280;9896;42.486;26.506;2023-03-25T05:13:53;99463.94;;;4.62;100.00
19510;BME280;9896;42.486;26.506;2023-03-25T05:16:19;99462.72;;;4.88;100.00
19510;BME280;9896;42.486;26.506;2023-03-25T05:18:44;99463.84;;;5.23;100.00
19510;BME280;9896;42.486;26.506;2023-03-25T05:21:10;99458.09;;;5.34;100.00
19510;BME280;9896;42.486;26.506;2023-03-25T05:23:37;99456.69;;;5.52;100.00
19510;BME280;9896;42.486;26.506;2023-03-25T05:26:02;99473.03;;;5.49;100.00
19510;BME280;9896;42.486;26.506;2023-03-25T05:28:28;99458.66;;;5.80;100.00
19510;BME280;9896;42.486;26.506;2023-03-25T05:30:54;99467.47;;;5.80;100.00
19510;BME280;9896;42.486;26.506;2023-03-25T05:33:20;99464.19;;;5.63;100.00
19510;BME280;9896;42.486;26.506;2023-03-25T05:35:45;99467.69;;;5.64;100.00
19510;BME280;9896;42.486;26.506;2023-03-25T05:38:12;99467.22;;;5.75;100.00
19510;BME280;9896;42.486;26.506;2023-03-25T05:40:38;99472.66;;;6.18;100.00
19510;BME280;9896;42.486;26.506;2023-03-25T05:43:04;99467.28;;;6.32;100.00
19510;BME280;9896;42.486;26.506;2023-03-25T05:45:31;99462.50;;;6.49;100.00
19510;BME280;9896;42.486;26.506;2023-03-25T05:48:00;99464.22;;;6.57;100.00
19510;BME280;9896;42.486;26.506;2023-03-25T05:50:25;99466.47;;;6.81;100.00
19510;BME280;9896;42.486;26.506;2023-03-25T05:52:52;99457.28;;;7.11;100.00
19510;BME280;9896;42.486;26.506;2023-03-25T05:55:21;99473.69;;;7.08;100.00
19510;BME280;9896;42.486;26.506;2023-03-25T05:57:48;99464.03;;;7.07;100.00
19510;BME280;9896;42.486;26.506;2023-03-25T06:00:15;99462.50;;;7.26;100.00
19510;BME280;9896;42.486;26.506;2023-03-25T06:02:43;99457.63;;;7.29;100.00
19510;BME280;9896;42.486;26.506;2023-03-25T06:05:11;99461.25;;;7.63;100.00
19510;BME280;9896;42.486;26.506;2023-03-25T06:07:41;99464.94;;;7.55;100.00
19510;BME280;9896;42.486;26.506;2023-03-25T06:10:08;99462.63;;;7.45;100.00
19510;BME280;9896;42.486;26.506;2023-03-25T06:12:34;99453.16;;;7.36;100.00
19510;BME280;9896;42.486;26.506;2023-03-25T06:15:07;99455.88;;;7.50;100.00
19510;BME280;9896;42.486;26.506;2023-03-25T06:17:34;99470.56;;;7.73;100.00
19510;BME280;9896;42.486;26.506;2023-03-25T06:20:09;99463.25;;;7.95;100.00
19510;BME280;9896;42.486;26.506;2023-03-25T06:22:40;99472.50;;;7.99;100.00
19510;BME280;9896;42.486;26.506;2023-03-25T06:25:15;99471.56;;;8.26;100.00
19510;BME280;9896;42.486;26.506;2023-03-25T06:27:46;99457.03;;;8.49;100.00
19510;BME280;9896;42.486;26.506;2023-03-25T06:30:17;99464.69;;;8.52;100.00
19510;BME280;9896;42.486;26.506;2023-03-25T06:32:43;99470.84;;;8.72;100.00
19510;BME280;9896;42.486;26.506;2023-03-25T06:35:10;99459.34;;;8.91;100.00
19510;BME280;9896;42.486;26.506;2023-03-25T06:37:37;99462.22;;;8.90;100.00
19510;BME280;9896;42.486;26.506;2023-03-25T06:40:03;99458.09;;;8.94;100.00
19510;BME280;9896;42.486;26.506;2023-03-25T06:42:30;99447.81;;;8.97;100.00
19510;BME280;9896;42.486;26.506;2023-03-25T06:44:56;99455.44;;;9.00;100.00
19510;BME280;9896;42.486;26.506;2023-03-25T06:47:21;99462.41;;;9.08;100.00
19510;BME280;9896;42.486;26.506;2023-03-25T06:49:47;99467.84;;;9.65;100.00
19510;BME280;9896;42.486;26.506;2023-03-25T06:52:13;99467.25;;;10.08;100.00
19510;BME280;9896;42.486;26.506;2023-03-25T06:54:38;99455.50;;;10.09;100.00
19510;BME280;9896;42.486;26.506;2023-03-25T06:57:04;99472.25;;;10.42;98.74
19510;BME280;9896;42.486;26.506;2023-03-25T06:59:30;99468.81;;;10.35;99.19
19510;BME280;9896;42.486;26.506;2023-03-25T07:01:56;99467.75;;;10.92;96.42
19510;BME280;9896;42.486;26.506;2023-03-25T07:04:22;99462.25;;;10.87;96.48
19510;BME280;9896;42.486;26.506;2023-03-25T07:06:47;99469.97;;;10.46;98.56
19510;BME280;9896;42.486;26.506;2023-03-25T07:09:13;99473.47;;;11.02;97.59
19510;BME280;9896;42.486;26.506;2023-03-25T07:11:38;99458.66;;;10.68;97.59
19510;BME280;9896;42.486;26.506;2023-03-25T07:14:04;99471.78;;;11.26;96.91
19510;BME280;9896;42.486;26.506;2023-03-25T07:16:30;99470.25;;;11.37;94.95
19510;BME280;9896;42.486;26.506;2023-03-25T07:18:56;99471.41;;;11.23;96.32
19510;BME280;9896;42.486;26.506;2023-03-25T07:21:23;99472.91;;;11.18;96.00
19510;BME280;9896;42.486;26.506;2023-03-25T07:23:49;99470.88;;;11.14;96.63
19510;BME280;9896;42.486;26.506;2023-03-25T07:26:14;99470.69;;;10.84;98.52
19510;BME280;9896;42.486;26.506;2023-03-25T07:28:41;99471.59;;;11.03;98.03
19510;BME280;9896;42.486;26.506;2023-03-25T07:31:08;99471.25;;;11.17;97.02
19510;BME280;9896;42.486;26.506;2023-03-25T07:33:34;99463.31;;;11.47;95.34
19510;BME280;9896;42.486;26.506;2023-03-25T07:36:01;99465.09;;;11.53;96.48
19510;BME280;9896;42.486;26.506;2023-03-25T07:38:26;99462.75;;;12.30;92.57
19510;BME280;9896;42.486;26.506;2023-03-25T07:40:52;99463.09;;;12.22;93.08
19510;BME280;9896;42.486;26.506;2023-03-25T07:43:17;99459.63;;;11.85;95.29
19510;BME280;9896;42.486;26.506;2023-03-25T07:45:43;99453.00;;;12.17;93.97
19510;BME280;9896;42.486;26.506;2023-03-25T07:48:09;99450.50;;;12.34;94.02
19510;BME280;9896;42.486;26.506;2023-03-25T07:50:39;99449.13;;;12.96;89.39
19510;BME280;9896;42.486;26.506;2023-03-25T07:53:04;99443.16;;;13.05;89.53
19510;BME280;9896;42.486;26.506;2023-03-25T07:55:30;99436.75;;;13.18;88.10
19510;BME280;9896;42.486;26.506;2023-03-25T07:57:55;99439.31;;;13.48;87.92
19510;BME280;9896;42.486;26.506;2023-03-25T08:00:22;99435.53;;;13.02;89.47
19510;BME280;9896;42.486;26.506;2023-03-25T08:02:48;99443.53;;;13.21;87.93
19510;BME280;9896;42.486;26.506;2023-03-25T08:05:14;99428.56;;;13.36;88.03
19510;BME280;9896;42.486;26.506;2023-03-25T08:07:47;99421.69;;;13.57;86.68
19510;BME280;9896;42.486;26.506;2023-03-25T08:10:13;99429.00;;;13.33;87.73
19510;BME280;9896;42.486;26.506;2023-03-25T08:12:42;99424.63;;;13.67;87.15
19510;BME280;9896;42.486;26.506;2023-03-25T08:15:09;99429.22;;;13.95;85.71
19510;BME280;9896;42.486;26.506;2023-03-25T08:17:36;99418.53;;;14.28;82.66
19510;BME280;9896;42.486;26.506;2023-03-25T08:20:03;99422.47;;;14.49;82.15
19510;BME280;9896;42.486;26.506;2023-03-25T08:22:30;99411.84;;;14.43;80.69
19510;BME280;9896;42.486;26.506;2023-03-25T08:24:55;99413.38;;;14.88;79.34
19510;BME280;9896;42.486;26.506;2023-03-25T08:27:21;99418.59;;;14.17;81.49
19510;BME280;9896;42.486;26.506;2023-03-25T08:29:46;99425.66;;;14.06;83.31
19510;BME280;9896;42.486;26.506;2023-03-25T08:32:19;99410.75;;;13.87;83.54
19510;BME280;9896;42.486;26.506;2023-03-25T08:34:45;99422.13;;;14.17;82.84
19510;BME280;9896;42.486;26.506;2023-03-25T08:37:10;99421.81;;;14.42;82.26
19510;BME280;9896;42.486;26.506;2023-03-25T08:39:36;99413.88;;;14.69;80.76
19510;BME280;9896;42.486;26.506;2023-03-25T08:42:08;99392.16;;;14.30;80.57
19510;BME280;9896;42.486;26.506;2023-03-25T08:44:33;99400.34;;;14.35;81.69
19510;BME280;9896;42.486;26.506;2023-03-25T08:46:59;99399.97;;;15.10;78.23
19510;BME280;9896;42.486;26.506;2023-03-25T08:49:25;99397.19;;;14.72;80.30
19510;BME280;9896;42.486;26.506;2023-03-25T08:51:50;99399.09;;;14.26;82.96
19510;BME280;9896;42.486;26.506;2023-03-25T08:54:16;99398.59;;;14.74;81.93
19510;BME280;9896;42.486;26.506;2023-03-25T08:56:41;99399.97;;;14.43;82.95
19510;BME280;9896;42.486;26.506;2023-03-25T08:59:07;99403.50;;;14.61;82.03
19510;BME280;9896;42.486;26.506;2023-03-25T09:01:32;99395.22;;;14.67;82.18
19510;BME280;9896;42.486;26.506;2023-03-25T09:03:58;99397.91;;;15.17;80.33
19510;BME280;9896;42.486;26.506;2023-03-25T09:06:23;99390.78;;;15.28;79.54
19510;BME280;9896;42.486;26.506;2023-03-25T09:08:49;99390.34;;;15.36;79.70
19510;BME280;9896;42.486;26.506;2023-03-25T09:11:16;99385.69;;;15.31;79.86
19510;BME280;9896;42.486;26.506;2023-03-25T09:13:42;99376.94;;;15.46;78.38
19510;BME280;9896;42.486;26.506;2023-03-25T09:16:08;99395.03;;;15.46;79.49
19510;BME280;9896;42.486;26.506;2023-03-25T09:18:34;99377.69;;;15.20;79.14
19510;BME280;9896;42.486;26.506;2023-03-25T09:21:01;99366.34;;;15.61;78.26
19510;BME280;9896;42.486;26.506;2023-03-25T09:23:27;99387.38;;;16.03;76.33
19510;BME280;9896;42.486;26.506;2023-03-25T09:25:55;99387.66;;;15.79;76.47
19510;BME280;9896;42.486;26.506;2023-03-25T09:28:23;99365.97;;;15.96;76.58
19510;BME280;9896;42.486;26.506;2023-03-25T09:30:49;99365.78;;;16.35;74.45
19510;BME280;9896;42.486;26.506;2023-03-25T09:33:14;99348.50;;;16.62;73.27
19510;BME280;9896;42.486;26.506;2023-03-25T09:35:40;99356.53;;;16.25;75.06
19510;BME280;9896;42.486;26.506;2023-03-25T09:38:06;99341.59;;;16.55;73.87
19510;BME280;9896;42.486;26.506;2023-03-25T09:40:33;99345.41;;;16.22;74.23
19510;BME280;9896;42.486;26.506;2023-03-25T09:43:11;99346.91;;;16.71;73.11
19510;BME280;9896;42.486;26.506;2023-03-25T09:45:45;99343.78;;;17.37;70.60
19510;BME280;9896;42.486;26.506;2023-03-25T09:50:51;99326.31;;;17.12;69.07
19510;BME280;9896;42.486;26.506;2023-03-25T09:56:20;99314.81;;;17.42;68.22
19510;BME280;9896;42.486;26.506;2023-03-25T09:58:54;99301.97;;;17.17;68.92
19510;BME280;9896;42.486;26.506;2023-03-25T10:01:40;99307.41;;;16.76;71.13
19510;BME280;9896;42.486;26.506;2023-03-25T10:04:45;99299.56;;;17.26;68.99
19510;BME280;9896;42.486;26.506;2023-03-25T10:20:43;99266.47;;;18.42;64.40
19510;BME280;9896;42.486;26.506;2023-03-25T10:23:21;99265.94;;;18.25;64.59
19510;BME280;9896;42.486;26.506;2023-03-25T10:25:59;99265.63;;;18.72;60.80
19510;BME280;9896;42.486;26.506;2023-03-25T10:28:31;99252.59;;;18.69;60.87
19510;BME280;9896;42.486;26.506;2023-03-25T10:30:59;99241.47;;;18.70;61.63
19510;BME280;9896;42.486;26.506;2023-03-25T10:33:36;99242.59;;;18.08;63.29
19510;BME280;9896;42.486;26.506;2023-03-25T10:36:05;99233.59;;;18.38;61.74
19510;BME280;9896;42.486;26.506;2023-03-25T10:38:34;99230.00;;;18.83;59.97
19510;BME280;9896;42.486;26.506;2023-03-25T10:43:35;99231.19;;;18.17;61.98
19510;BME280;9896;42.486;26.506;2023-03-25T10:46:16;99234.44;;;18.29;62.13
19510;BME280;9896;42.486;26.506;2023-03-25T10:48:45;99223.25;;;18.50;61.33
19510;BME280;9896;42.486;26.506;2023-03-25T10:51:14;99215.09;;;18.71;59.35
19510;BME280;9896;42.486;26.506;2023-03-25T10:53:41;99201.25;;;18.82;59.72
19510;BME280;9896;42.486;26.506;2023-03-25T10:56:13;99209.22;;;19.18;58.15
19510;BME280;9896;42.486;26.506;2023-03-25T10:58:43;99195.00;;;18.77;57.01
19510;BME280;9896;42.486;26.506;2023-03-25T11:01:15;99183.97;;;19.17;55.57
19510;BME280;9896;42.486;26.506;2023-03-25T11:03:43;99201.75;;;18.89;58.08
19510;BME280;9896;42.486;26.506;2023-03-25T11:06:28;99173.78;;;19.43;56.22
19510;BME280;9896;42.486;26.506;2023-03-25T11:09:35;99179.66;;;19.94;55.58
19510;BME280;9896;42.486;26.506;2023-03-25T11:12:04;99162.00;;;19.91;55.58
19510;BME280;9896;42.486;26.506;2023-03-25T11:14:36;99163.50;;;20.08;53.50
19510;BME280;9896;42.486;26.506;2023-03-25T11:17:09;99159.34;;;19.81;53.94
19510;BME280;9896;42.486;26.506;2023-03-25T11:19:39;99165.47;;;19.97;49.65
19510;BME280;9896;42.486;26.506;2023-03-25T11:22:15;99151.50;;;19.80;50.23
19510;BME280;9896;42.486;26.506;2023-03-25T11:24:46;99150.47;;;20.05;48.89
19510;BME280;9896;42.486;26.506;2023-03-25T11:27:21;99146.69;;;20.01;48.85
19510;BME280;9896;42.486;26.506;2023-03-25T11:30:01;99138.94;;;20.65;47.62
19510;BME280;9896;42.486;26.506;2023-03-25T11:32:37;99146.44;;;20.78;47.55
19510;BME280;9896;42.486;26.506;2023-03-25T11:35:24;99135.25;;;20.56;48.82
19510;BME280;9896;42.486;26.506;2023-03-25T11:37:59;99145.91;;;20.53;48.30
19510;BME280;9896;42.486;26.506;2023-03-25T11:40:27;99135.53;;;20.26;46.70
19510;BME280;9896;42.486;26.506;2023-03-25T11:42:56;99114.25;;;20.57;45.75
19510;BME280;9896;42.486;26.506;2023-03-25T11:45:40;99125.88;;;20.62;45.35
19510;BME280;9896;42.486;26.506;2023-03-25T11:48:19;99119.09;;;20.83;44.17
19510;BME280;9896;42.486;26.506;2023-03-25T11:50:53;99118.91;;;20.56;44.22
19510;BME280;9896;42.486;26.506;2023-03-25T11:53:20;99094.44;;;20.51;45.34
19510;BME280;9896;42.486;26.506;2023-03-25T11:55:50;99112.72;;;20.93;45.02
19510;BME280;9896;42.486;26.506;2023-03-25T11:58:21;99082.81;;;20.46;44.38
19510;BME280;9896;42.486;26.506;2023-03-25T12:00:48;99101.50;;;20.52;44.77
19510;BME280;9896;42.486;26.506;2023-03-25T12:05:40;99098.59;;;20.67;44.21
19510;BME280;9896;42.486;26.506;2023-03-25T12:08:10;99099.25;;;20.59;42.33
19510;BME280;9896;42.486;26.506;2023-03-25T12:11:05;99086.41;;;20.83;42.67
19510;BME280;9896;42.486;26.506;2023-03-25T12:18:54;99085.03;;;20.86;42.06
19510;BME280;9896;42.486;26.506;2023-03-25T12:21:37;99086.50;;;21.16;42.19
19510;BME280;9896;42.486;26.506;2023-03-25T12:40:47;99057.25;;;21.86;40.47
19510;BME280;9896;42.486;26.506;2023-03-25T12:43:31;99041.44;;;22.43;39.69
19510;BME280;9896;42.486;26.506;2023-03-25T12:51:58;99027.06;;;22.51;38.22
19510;BME280;9896;42.486;26.506;2023-03-25T12:54:47;99028.00;;;22.05;38.79
19510;BME280;9896;42.486;26.506;2023-03-25T12:57:22;99029.88;;;22.59;38.02
19510;BME280;9896;42.486;26.506;2023-03-25T13:00:31;99022.41;;;21.97;38.56
19510;BME280;9896;42.486;26.506;2023-03-25T13:08:35;99021.16;;;21.29;40.00
19510;BME280;9896;42.486;26.506;2023-03-25T13:11:10;99010.16;;;21.16;40.63
19510;BME280;9896;42.486;26.506;2023-03-25T13:13:38;99014.34;;;21.08;41.47
19510;BME280;9896;42.486;26.506;2023-03-25T13:16:15;99011.81;;;21.17;42.05
19510;BME280;9896;42.486;26.506;2023-03-25T13:19:00;99002.84;;;21.11;42.55
19510;BME280;9896;42.486;26.506;2023-03-25T13:21:31;99009.72;;;21.60;41.71
19510;BME280;9896;42.486;26.506;2023-03-25T13:24:20;99000.16;;;21.90;40.80
19510;BME280;9896;42.486;26.506;2023-03-25T13:26:49;98993.69;;;21.86;40.63
19510;BME280;9896;42.486;26.506;2023-03-25T13:29:36;98994.03;;;22.11;39.99
19510;BME280;9896;42.486;26.506;2023-03-25T13:32:31;98993.53;;;21.96;40.42
19510;BME280;9896;42.486;26.506;2023-03-25T13:35:03;98989.38;;;21.98;40.36
19510;BME280;9896;42.486;26.506;2023-03-25T13:37:42;98982.56;;;21.82;40.67
19510;BME280;9896;42.486;26.506;2023-03-25T13:45:18;98976.25;;;22.99;38.25
19510;BME280;9896;42.486;26.506;2023-03-25T13:48:09;98971.25;;;22.79;38.16
19510;BME280;9896;42.486;26.506;2023-03-25T13:50:37;98972.97;;;22.39;39.15
19510;BME280;9896;42.486;26.506;2023-03-25T14:02:00;98954.94;;;23.54;35.95
19510;BME280;9896;42.486;26.506;2023-03-25T14:10:41;98952.16;;;23.01;36.68
19510;BME280;9896;42.486;26.506;2023-03-25T14:13:17;98935.78;;;23.54;36.10
19510;BME280;9896;42.486;26.506;2023-03-25T14:16:03;98932.69;;;24.43;34.59
19510;BME280;9896;42.486;26.506;2023-03-25T14:18:31;98952.66;;;24.35;34.66
19510;BME280;9896;42.486;26.506;2023-03-25T14:21:10;98937.34;;;23.86;35.76
19510;BME280;9896;42.486;26.506;2023-03-25T14:23:37;98942.66;;;24.39;35.45
19510;BME280;9896;42.486;26.506;2023-03-25T14:26:05;98930.38;;;23.80;35.55
19510;BME280;9896;42.486;26.506;2023-03-25T14:28:38;98962.81;;;23.11;36.78
19510;BME280;9896;42.486;26.506;2023-03-25T14:36:30;98949.50;;;25.02;34.32
19510;BME280;9896;42.486;26.506;2023-03-25T14:39:08;98933.16;;;24.80;34.48
19510;BME280;9896;42.486;26.506;2023-03-25T14:42:39;98943.31;;;24.45;34.79
19510;BME280;9896;42.486;26.506;2023-03-25T14:44:50;98929.44;;;24.41;34.28
19510;BME280;9896;42.486;26.506;2023-03-25T14:52:44;98947.47;;;25.45;33.24
19510;BME280;9896;42.486;26.506;2023-03-25T14:55:18;98945.69;;;25.50;32.94
19510;BME280;9896;42.486;26.506;2023-03-25T14:57:45;98932.94;;;25.45;32.95
19510;BME280;9896;42.486;26.506;2023-03-25T15:00:28;98936.75;;;24.97;34.03
19510;BME280;9896;42.486;26.506;2023-03-25T15:03:21;98933.88;;;25.49;32.97
19510;BME280;9896;42.486;26.506;2023-03-25T15:05:55;98928.16;;;25.08;33.30
19510;BME280;9896;42.486;26.506;2023-03-25T15:08:35;98932.69;;;24.52;34.11
19510;BME280;9896;42.486;26.506;2023-03-25T15:11:16;98936.06;;;24.75;34.17
19510;BME280;9896;42.486;26.506;2023-03-25T15:13:45;98932.50;;;25.34;33.34
19510;BME280;9896;42.486;26.506;2023-03-25T15:19:09;98913.25;;;25.43;33.89
19510;BME280;9896;42.486;26.506;2023-03-25T15:27:01;98932.84;;;25.16;34.59
19510;BME280;9896;42.486;26.506;2023-03-25T15:29:35;98924.47;;;24.78;35.35
19510;BME280;9896;42.486;26.506;2023-03-25T15:32:39;98927.91;;;24.09;36.76
19510;BME280;9896;42.486;26.506;2023-03-25T15:43:33;98925.88;;;22.56;39.94
19510;BME280;9896;42.486;26.506;2023-03-25T15:57:28;98946.91;;;21.92;41.34
19510;BME280;9896;42.486;26.506;2023-03-25T16:02:47;98944.59;;;20.56;45.50